Round Rock, Texas
Current Conditions -  °F | °C
As of 2:35 AM on Friday 31 Oct 2014 (Local Time) from KEDC Reporting Station
Light Rain Light Rain  
Wind Chill: 64°   Ceiling: 4700
Heat Index: 64°   Visibility: 10mi
Dew Point: 57°   Wind: 12mph
Humidity: 77%   Direction: 310°NW
Pressure: 30.17"   Gusts: NA
Location:  30.51°N, 97.68°W
Report Text: KEDC 310735Z AUTO 31010KT 10SM -RA FEW035 BKN047 OVC050 18/14 A3017 RMK AO2
Loading
Personal Weather Stations






























Interactive Weather Map
Tropical Storm Tracking
New forecast layout! Learn more

10-Day Weather Forecast

Advertisements
Track Severe Weather on mobile